sensor_id;sensor_type;location;lat;lon;timestamp;pressure;altitude;pressure_sealevel;temperature;humidity
38267;BME280;24063;51.794;19.578;2022-09-25T00:00:54;98391.36;;;7.26;93.87
38267;BME280;24063;51.794;19.578;2022-09-25T00:02:09;98391.79;;;7.25;93.93
38267;BME280;24063;51.794;19.578;2022-09-25T00:03:13;98389.20;;;7.26;94.02
38267;BME280;24063;51.794;19.578;2022-09-25T00:04:15;98386.73;;;7.27;93.88
38267;BME280;24063;51.794;19.578;2022-09-25T00:05:17;98384.31;;;7.26;94.03
38267;BME280;24063;51.794;19.578;2022-09-25T00:06:22;98386.52;;;7.27;93.78
38267;BME280;24063;51.794;19.578;2022-09-25T00:07:24;98384.86;;;7.26;94.00
38267;BME280;24063;51.794;19.578;2022-09-25T00:08:26;98382.17;;;7.27;93.92
38267;BME280;24063;51.794;19.578;2022-09-25T00:09:28;98383.36;;;7.28;93.73
38267;BME280;24063;51.794;19.578;2022-09-25T00:10:30;98381.34;;;7.30;93.89
38267;BME280;24063;51.794;19.578;2022-09-25T00:11:32;98377.11;;;7.32;93.97
38267;BME280;24063;51.794;19.578;2022-09-25T00:12:34;98373.79;;;7.34;93.69
38267;BME280;24063;51.794;19.578;2022-09-25T00:13:37;98372.83;;;7.35;93.58
38267;BME280;24063;51.794;19.578;2022-09-25T00:14:41;98372.66;;;7.35;93.68
38267;BME280;24063;51.794;19.578;2022-09-25T00:15:52;98374.60;;;7.37;93.69
38267;BME280;24063;51.794;19.578;2022-09-25T00:16:55;98370.25;;;7.37;93.54
38267;BME280;24063;51.794;19.578;2022-09-25T00:17:57;98371.17;;;7.38;93.65
38267;BME280;24063;51.794;19.578;2022-09-25T00:18:59;98370.20;;;7.37;93.26
38267;BME280;24063;51.794;19.578;2022-09-25T00:21:00;98367.01;;;7.36;93.85
38267;BME280;24063;51.794;19.578;2022-09-25T00:22:02;98366.96;;;7.36;93.84
38267;BME280;24063;51.794;19.578;2022-09-25T00:23:04;98363.04;;;7.37;94.01
38267;BME280;24063;51.794;19.578;2022-09-25T00:24:08;98364.17;;;7.38;93.86
38267;BME280;24063;51.794;19.578;2022-09-25T00:25:12;98364.11;;;7.37;93.77
38267;BME280;24063;51.794;19.578;2022-09-25T00:26:16;98368.42;;;7.38;93.74
38267;BME280;24063;51.794;19.578;2022-09-25T00:27:18;98365.04;;;7.38;93.85
38267;BME280;24063;51.794;19.578;2022-09-25T00:28:20;98366.54;;;7.37;93.75
38267;BME280;24063;51.794;19.578;2022-09-25T00:29:22;98364.60;;;7.37;94.03
38267;BME280;24063;51.794;19.578;2022-09-25T00:30:24;98364.23;;;7.37;93.94
38267;BME280;24063;51.794;19.578;2022-09-25T00:31:26;98365.80;;;7.38;93.97
38267;BME280;24063;51.794;19.578;2022-09-25T00:32:29;98364.45;;;7.37;93.90
38267;BME280;24063;51.794;19.578;2022-09-25T00:33:32;98360.93;;;7.36;93.89
38267;BME280;24063;51.794;19.578;2022-09-25T00:34:36;98365.39;;;7.35;93.85
38267;BME280;24063;51.794;19.578;2022-09-25T00:35:38;98362.74;;;7.33;93.58
38267;BME280;24063;51.794;19.578;2022-09-25T00:36:40;98360.36;;;7.31;93.58
38267;BME280;24063;51.794;19.578;2022-09-25T00:37:42;98358.95;;;7.27;93.38
38267;BME280;24063;51.794;19.578;2022-09-25T00:38:44;98359.20;;;7.24;93.57
38267;BME280;24063;51.794;19.578;2022-09-25T00:39:48;98354.77;;;7.21;93.68
38267;BME280;24063;51.794;19.578;2022-09-25T00:40:50;98357.61;;;7.21;93.92
38267;BME280;24063;51.794;19.578;2022-09-25T00:41:53;98353.53;;;7.19;93.54
38267;BME280;24063;51.794;19.578;2022-09-25T00:42:54;98353.20;;;7.19;93.72
38267;BME280;24063;51.794;19.578;2022-09-25T00:43:58;98354.55;;;7.18;93.96
38267;BME280;24063;51.794;19.578;2022-09-25T00:45:21;98352.44;;;7.18;93.92
38267;BME280;24063;51.794;19.578;2022-09-25T00:46:36;98355.52;;;7.18;94.19
38267;BME280;24063;51.794;19.578;2022-09-25T00:48:01;98351.15;;;7.19;94.29
38267;BME280;24063;51.794;19.578;2022-09-25T00:49:21;98351.86;;;7.19;94.23
38267;BME280;24063;51.794;19.578;2022-09-25T00:50:42;98350.19;;;7.19;94.11
38267;BME280;24063;51.794;19.578;2022-09-25T00:53:10;98350.78;;;7.18;94.22
38267;BME280;24063;51.794;19.578;2022-09-25T00:54:34;98348.56;;;7.18;94.19
38267;BME280;24063;51.794;19.578;2022-09-25T00:55:41;98353.55;;;7.16;94.32
38267;BME280;24063;51.794;19.578;2022-09-25T00:56:47;98348.17;;;7.14;94.23
38267;BME280;24063;51.794;19.578;2022-09-25T00:57:53;98350.47;;;7.14;94.36
38267;BME280;24063;51.794;19.578;2022-09-25T00:58:57;98354.66;;;7.12;94.37
38267;BME280;24063;51.794;19.578;2022-09-25T01:00:08;98351.81;;;7.10;94.30
38267;BME280;24063;51.794;19.578;2022-09-25T01:01:11;98355.71;;;7.09;94.26
38267;BME280;24063;51.794;19.578;2022-09-25T01:02:20;98353.56;;;7.09;94.48
38267;BME280;24063;51.794;19.578;2022-09-25T01:03:26;98357.39;;;7.10;94.71
38267;BME280;24063;51.794;19.578;2022-09-25T01:04:34;98358.05;;;7.11;94.83
38267;BME280;24063;51.794;19.578;2022-09-25T01:05:42;98355.52;;;7.13;94.86
38267;BME280;24063;51.794;19.578;2022-09-25T01:06:44;98354.83;;;7.14;94.74
38267;BME280;24063;51.794;19.578;2022-09-25T01:07:49;98357.25;;;7.14;94.81
38267;BME280;24063;51.794;19.578;2022-09-25T01:08:52;98353.16;;;7.14;94.87
38267;BME280;24063;51.794;19.578;2022-09-25T01:09:54;98354.40;;;7.14;94.74
38267;BME280;24063;51.794;19.578;2022-09-25T01:11:00;98355.48;;;7.13;94.82
38267;BME280;24063;51.794;19.578;2022-09-25T01:12:02;98353.74;;;7.12;94.69
38267;BME280;24063;51.794;19.578;2022-09-25T01:13:05;98353.67;;;7.10;94.72
38267;BME280;24063;51.794;19.578;2022-09-25T01:14:09;98353.89;;;7.08;94.86
38267;BME280;24063;51.794;19.578;2022-09-25T01:15:14;98352.33;;;7.08;94.95
38267;BME280;24063;51.794;19.578;2022-09-25T01:16:44;98345.85;;;7.06;94.98
38267;BME280;24063;51.794;19.578;2022-09-25T01:19:32;98347.86;;;7.02;94.94
38267;BME280;24063;51.794;19.578;2022-09-25T01:21:06;98349.10;;;7.02;95.09
38267;BME280;24063;51.794;19.578;2022-09-25T01:22:35;98349.38;;;7.02;95.19
38267;BME280;24063;51.794;19.578;2022-09-25T01:24:03;98348.55;;;7.01;95.10
38267;BME280;24063;51.794;19.578;2022-09-25T01:25:33;98347.42;;;7.00;95.23
38267;BME280;24063;51.794;19.578;2022-09-25T01:30:13;98341.23;;;6.98;95.33
38267;BME280;24063;51.794;19.578;2022-09-25T01:31:54;98341.66;;;6.98;95.19
38267;BME280;24063;51.794;19.578;2022-09-25T01:33:09;98341.48;;;6.96;95.38
38267;BME280;24063;51.794;19.578;2022-09-25T01:34:25;98340.91;;;6.97;95.56
38267;BME280;24063;51.794;19.578;2022-09-25T01:35:57;98343.65;;;6.98;95.91
38267;BME280;24063;51.794;19.578;2022-09-25T01:38:32;98345.87;;;7.00;96.16
38267;BME280;24063;51.794;19.578;2022-09-25T01:39:40;98344.58;;;7.01;96.26
38267;BME280;24063;51.794;19.578;2022-09-25T01:40:58;98346.42;;;7.03;96.37
38267;BME280;24063;51.794;19.578;2022-09-25T01:42:32;98346.16;;;7.04;96.29
38267;BME280;24063;51.794;19.578;2022-09-25T01:43:42;98345.20;;;7.05;96.21
38267;BME280;24063;51.794;19.578;2022-09-25T01:44:53;98344.81;;;7.04;96.13
38267;BME280;24063;51.794;19.578;2022-09-25T01:46:01;98344.92;;;7.04;96.02
38267;BME280;24063;51.794;19.578;2022-09-25T01:47:09;98341.55;;;7.03;95.90
38267;BME280;24063;51.794;19.578;2022-09-25T01:48:20;98342.70;;;7.01;95.98
38267;BME280;24063;51.794;19.578;2022-09-25T01:49:29;98343.39;;;6.99;95.90
38267;BME280;24063;51.794;19.578;2022-09-25T01:50:48;98341.61;;;6.97;95.95
38267;BME280;24063;51.794;19.578;2022-09-25T01:51:53;98341.60;;;6.96;96.12
38267;BME280;24063;51.794;19.578;2022-09-25T01:53:01;98343.42;;;6.96;96.22
38267;BME280;24063;51.794;19.578;2022-09-25T01:54:10;98339.55;;;6.96;96.39
38267;BME280;24063;51.794;19.578;2022-09-25T01:56:27;98336.93;;;6.98;96.54
38267;BME280;24063;51.794;19.578;2022-09-25T01:57:40;98340.17;;;6.99;96.50
38267;BME280;24063;51.794;19.578;2022-09-25T01:58:54;98339.52;;;6.99;96.37
38267;BME280;24063;51.794;19.578;2022-09-25T02:00:07;98340.82;;;7.00;96.54
38267;BME280;24063;51.794;19.578;2022-09-25T02:01:21;98340.44;;;7.00;96.41
38267;BME280;24063;51.794;19.578;2022-09-25T02:02:29;98339.36;;;7.00;96.46
38267;BME280;24063;51.794;19.578;2022-09-25T02:04:02;98339.64;;;7.00;96.56
38267;BME280;24063;51.794;19.578;2022-09-25T02:05:09;98338.50;;;7.00;96.58
38267;BME280;24063;51.794;19.578;2022-09-25T02:06:18;98336.67;;;6.99;96.62
38267;BME280;24063;51.794;19.578;2022-09-25T02:07:28;98337.42;;;6.98;96.65
38267;BME280;24063;51.794;19.578;2022-09-25T02:08:40;98334.90;;;6.98;96.68
38267;BME280;24063;51.794;19.578;2022-09-25T02:09:57;98339.19;;;6.97;96.46
38267;BME280;24063;51.794;19.578;2022-09-25T02:11:05;98335.91;;;6.96;96.69
38267;BME280;24063;51.794;19.578;2022-09-25T02:12:15;98334.84;;;6.96;96.86
38267;BME280;24063;51.794;19.578;2022-09-25T02:13:18;98337.02;;;6.97;96.97
38267;BME280;24063;51.794;19.578;2022-09-25T02:14:29;98335.98;;;6.99;97.26
38267;BME280;24063;51.794;19.578;2022-09-25T02:15:42;98340.79;;;7.04;97.41
38267;BME280;24063;51.794;19.578;2022-09-25T02:16:48;98336.88;;;7.05;97.13
38267;BME280;24063;51.794;19.578;2022-09-25T02:19:16;98334.69;;;7.07;96.69
38267;BME280;24063;51.794;19.578;2022-09-25T02:20:38;98333.98;;;7.07;96.60
38267;BME280;24063;51.794;19.578;2022-09-25T02:21:51;98335.64;;;7.05;96.64
38267;BME280;24063;51.794;19.578;2022-09-25T02:23:03;98331.60;;;7.04;96.75
38267;BME280;24063;51.794;19.578;2022-09-25T02:25:47;98336.42;;;7.03;97.08
38267;BME280;24063;51.794;19.578;2022-09-25T02:26:55;98332.92;;;7.03;96.99
38267;BME280;24063;51.794;19.578;2022-09-25T02:27:56;98332.88;;;7.02;96.98
38267;BME280;24063;51.794;19.578;2022-09-25T02:28:59;98332.83;;;7.03;97.13
38267;BME280;24063;51.794;19.578;2022-09-25T02:30:01;98329.02;;;7.05;97.32
38267;BME280;24063;51.794;19.578;2022-09-25T02:31:07;98326.45;;;7.06;97.32
38267;BME280;24063;51.794;19.578;2022-09-25T02:32:12;98327.16;;;7.07;96.99
38267;BME280;24063;51.794;19.578;2022-09-25T02:33:15;98324.16;;;7.08;96.88
38267;BME280;24063;51.794;19.578;2022-09-25T02:34:17;98323.73;;;7.09;96.85
38267;BME280;24063;51.794;19.578;2022-09-25T02:35:19;98326.09;;;7.09;96.52
38267;BME280;24063;51.794;19.578;2022-09-25T02:36:22;98324.20;;;7.07;96.54
38267;BME280;24063;51.794;19.578;2022-09-25T02:37:25;98324.42;;;7.08;96.55
38267;BME280;24063;51.794;19.578;2022-09-25T02:38:28;98321.25;;;7.08;96.71
38267;BME280;24063;51.794;19.578;2022-09-25T02:39:31;98319.85;;;7.06;96.45
38267;BME280;24063;51.794;19.578;2022-09-25T02:43:36;98318.06;;;7.04;96.21
38267;BME280;24063;51.794;19.578;2022-09-25T02:46:05;98317.55;;;7.00;96.20
38267;BME280;24063;51.794;19.578;2022-09-25T02:47:36;98318.58;;;6.99;96.41
38267;BME280;24063;51.794;19.578;2022-09-25T02:50:24;98310.88;;;7.00;96.29
38267;BME280;24063;51.794;19.578;2022-09-25T02:52:03;98308.24;;;7.00;96.28
38267;BME280;24063;51.794;19.578;2022-09-25T02:53:33;98309.00;;;6.98;95.91
38267;BME280;24063;51.794;19.578;2022-09-25T02:54:45;98306.73;;;6.96;96.02
38267;BME280;24063;51.794;19.578;2022-09-25T02:55:55;98308.48;;;6.93;96.22
38267;BME280;24063;51.794;19.578;2022-09-25T02:57:22;98309.27;;;6.92;96.40
38267;BME280;24063;51.794;19.578;2022-09-25T02:58:38;98306.94;;;6.87;96.61
38267;BME280;24063;51.794;19.578;2022-09-25T02:59:48;98308.16;;;6.85;97.02
38267;BME280;24063;51.794;19.578;2022-09-25T03:00:54;98308.44;;;6.87;97.52
38267;BME280;24063;51.794;19.578;2022-09-25T03:01:58;98303.30;;;6.89;97.71
38267;BME280;24063;51.794;19.578;2022-09-25T03:03:01;98302.81;;;6.91;97.66
38267;BME280;24063;51.794;19.578;2022-09-25T03:04:08;98303.56;;;6.92;97.82
38267;BME280;24063;51.794;19.578;2022-09-25T03:05:13;98301.60;;;6.93;97.70
38267;BME280;24063;51.794;19.578;2022-09-25T03:06:16;98306.45;;;6.95;97.33
38267;BME280;24063;51.794;19.578;2022-09-25T03:07:19;98307.53;;;6.96;97.54
38267;BME280;24063;51.794;19.578;2022-09-25T03:08:22;98304.84;;;6.96;97.62
38267;BME280;24063;51.794;19.578;2022-09-25T03:09:45;98306.64;;;7.00;97.77
38267;BME280;24063;51.794;19.578;2022-09-25T03:10:48;98307.40;;;7.02;97.70
38267;BME280;24063;51.794;19.578;2022-09-25T03:11:49;98307.09;;;7.03;97.57
38267;BME280;24063;51.794;19.578;2022-09-25T03:12:52;98305.80;;;7.05;97.55
38267;BME280;24063;51.794;19.578;2022-09-25T03:13:59;98306.25;;;7.06;97.38
38267;BME280;24063;51.794;19.578;2022-09-25T03:15:01;98306.63;;;7.06;97.38
38267;BME280;24063;51.794;19.578;2022-09-25T03:17:27;98304.42;;;7.07;97.32
38267;BME280;24063;51.794;19.578;2022-09-25T03:18:29;98303.45;;;7.06;97.11
38267;BME280;24063;51.794;19.578;2022-09-25T03:19:32;98300.54;;;7.05;97.25
38267;BME280;24063;51.794;19.578;2022-09-25T03:20:35;98304.63;;;7.05;97.10
38267;BME280;24063;51.794;19.578;2022-09-25T03:21:37;98303.61;;;7.06;97.15
38267;BME280;24063;51.794;19.578;2022-09-25T03:22:38;98297.70;;;7.06;96.85
38267;BME280;24063;51.794;19.578;2022-09-25T03:23:40;98301.77;;;7.05;96.82
38267;BME280;24063;51.794;19.578;2022-09-25T03:24:42;98299.45;;;7.04;96.77
38267;BME280;24063;51.794;19.578;2022-09-25T03:25:43;98297.84;;;7.03;96.89
38267;BME280;24063;51.794;19.578;2022-09-25T03:26:52;98298.70;;;7.02;96.66
38267;BME280;24063;51.794;19.578;2022-09-25T03:27:54;98300.52;;;7.01;96.41
38267;BME280;24063;51.794;19.578;2022-09-25T03:28:56;98301.42;;;7.00;96.51
38267;BME280;24063;51.794;19.578;2022-09-25T03:30:03;98301.09;;;6.98;96.46
38267;BME280;24063;51.794;19.578;2022-09-25T03:31:10;98299.75;;;6.98;96.46
38267;BME280;24063;51.794;19.578;2022-09-25T03:32:12;98298.27;;;6.95;96.23
38267;BME280;24063;51.794;19.578;2022-09-25T03:33:14;98297.28;;;6.91;96.26
38267;BME280;24063;51.794;19.578;2022-09-25T03:34:17;98297.27;;;6.88;96.35
38267;BME280;24063;51.794;19.578;2022-09-25T03:35:19;98297.48;;;6.87;96.25
38267;BME280;24063;51.794;19.578;2022-09-25T03:36:23;98299.44;;;6.84;96.29
38267;BME280;24063;51.794;19.578;2022-09-25T03:37:25;98297.88;;;6.82;96.38
38267;BME280;24063;51.794;19.578;2022-09-25T03:38:27;98292.48;;;6.79;96.62
38267;BME280;24063;51.794;19.578;2022-09-25T03:39:29;98292.85;;;6.80;96.65
38267;BME280;24063;51.794;19.578;2022-09-25T03:40:31;98290.21;;;6.79;96.75
38267;BME280;24063;51.794;19.578;2022-09-25T03:41:33;98294.52;;;6.79;96.82
38267;BME280;24063;51.794;19.578;2022-09-25T03:42:35;98294.61;;;6.77;96.81
38267;BME280;24063;51.794;19.578;2022-09-25T03:43:41;98293.41;;;6.75;97.02
38267;BME280;24063;51.794;19.578;2022-09-25T03:44:43;98294.64;;;6.74;97.10
38267;BME280;24063;51.794;19.578;2022-09-25T03:45:45;98295.27;;;6.72;96.95
38267;BME280;24063;51.794;19.578;2022-09-25T03:46:47;98294.29;;;6.71;97.09
38267;BME280;24063;51.794;19.578;2022-09-25T03:47:48;98298.48;;;6.70;97.28
38267;BME280;24063;51.794;19.578;2022-09-25T03:48:51;98296.13;;;6.69;97.34
38267;BME280;24063;51.794;19.578;2022-09-25T03:49:53;98295.72;;;6.68;97.38
38267;BME280;24063;51.794;19.578;2022-09-25T03:50:55;98297.22;;;6.66;97.52
38267;BME280;24063;51.794;19.578;2022-09-25T03:51:57;98297.05;;;6.65;97.49
38267;BME280;24063;51.794;19.578;2022-09-25T03:53:00;98293.80;;;6.63;97.46
38267;BME280;24063;51.794;19.578;2022-09-25T03:54:02;98290.95;;;6.62;97.51
38267;BME280;24063;51.794;19.578;2022-09-25T03:55:05;98295.94;;;6.61;97.58
38267;BME280;24063;51.794;19.578;2022-09-25T03:56:11;98295.92;;;6.61;97.62
38267;BME280;24063;51.794;19.578;2022-09-25T03:57:13;98297.92;;;6.61;97.64
38267;BME280;24063;51.794;19.578;2022-09-25T03:58:16;98298.02;;;6.60;97.63
38267;BME280;24063;51.794;19.578;2022-09-25T03:59:18;98301.79;;;6.59;97.68
38267;BME280;24063;51.794;19.578;2022-09-25T04:00:20;98300.12;;;6.59;98.07
38267;BME280;24063;51.794;19.578;2022-09-25T04:01:23;98297.48;;;6.60;97.89
38267;BME280;24063;51.794;19.578;2022-09-25T04:02:26;98300.98;;;6.60;97.89
38267;BME280;24063;51.794;19.578;2022-09-25T04:03:31;98299.77;;;6.57;98.01
38267;BME280;24063;51.794;19.578;2022-09-25T04:04:33;98300.61;;;6.55;97.81
38267;BME280;24063;51.794;19.578;2022-09-25T04:05:35;98304.30;;;6.53;98.07
38267;BME280;24063;51.794;19.578;2022-09-25T04:06:37;98305.42;;;6.53;98.09
38267;BME280;24063;51.794;19.578;2022-09-25T04:07:38;98302.57;;;6.51;98.03
38267;BME280;24063;51.794;19.578;2022-09-25T04:08:40;98303.86;;;6.51;98.16
38267;BME280;24063;51.794;19.578;2022-09-25T04:09:42;98306.05;;;6.50;98.17
38267;BME280;24063;51.794;19.578;2022-09-25T04:10:44;98306.15;;;6.49;98.34
38267;BME280;24063;51.794;19.578;2022-09-25T04:11:46;98306.73;;;6.48;98.38
38267;BME280;24063;51.794;19.578;2022-09-25T04:12:48;98306.55;;;6.46;98.44
38267;BME280;24063;51.794;19.578;2022-09-25T04:13:54;98305.90;;;6.45;98.27
38267;BME280;24063;51.794;19.578;2022-09-25T04:14:57;98309.81;;;6.44;98.41
38267;BME280;24063;51.794;19.578;2022-09-25T04:16:00;98308.52;;;6.45;98.43
38267;BME280;24063;51.794;19.578;2022-09-25T04:17:02;98304.29;;;6.44;98.40
38267;BME280;24063;51.794;19.578;2022-09-25T04:18:05;98305.41;;;6.45;98.76
38267;BME280;24063;51.794;19.578;2022-09-25T04:19:07;98305.42;;;6.46;98.91
38267;BME280;24063;51.794;19.578;2022-09-25T04:20:08;98309.02;;;6.47;99.14
38267;BME280;24063;51.794;19.578;2022-09-25T04:21:12;98305.55;;;6.48;99.38
38267;BME280;24063;51.794;19.578;2022-09-25T04:22:14;98307.02;;;6.50;99.58
38267;BME280;24063;51.794;19.578;2022-09-25T04:23:16;98305.33;;;6.52;99.49
38267;BME280;24063;51.794;19.578;2022-09-25T04:24:17;98306.55;;;6.53;99.42
38267;BME280;24063;51.794;19.578;2022-09-25T04:25:37;98305.66;;;6.54;99.16
38267;BME280;24063;51.794;19.578;2022-09-25T04:26:39;98303.81;;;6.53;99.20
38267;BME280;24063;51.794;19.578;2022-09-25T04:27:41;98302.05;;;6.53;99.26
38267;BME280;24063;51.794;19.578;2022-09-25T04:28:45;98300.44;;;6.53;99.38
38267;BME280;24063;51.794;19.578;2022-09-25T04:29:48;98299.86;;;6.55;99.69
38267;BME280;24063;51.794;19.578;2022-09-25T04:30:51;98296.81;;;6.55;99.49
38267;BME280;24063;51.794;19.578;2022-09-25T04:31:52;98297.13;;;6.57;99.45
38267;BME280;24063;51.794;19.578;2022-09-25T04:33:14;98296.89;;;6.58;99.67
38267;BME280;24063;51.794;19.578;2022-09-25T04:34:34;98294.36;;;6.59;99.39
38267;BME280;24063;51.794;19.578;2022-09-25T04:35:36;98293.84;;;6.60;99.36
38267;BME280;24063;51.794;19.578;2022-09-25T04:36:38;98296.52;;;6.60;99.44
38267;BME280;24063;51.794;19.578;2022-09-25T04:37:40;98294.86;;;6.61;99.42
38267;BME280;24063;51.794;19.578;2022-09-25T04:38:42;98293.52;;;6.61;99.55
38267;BME280;24063;51.794;19.578;2022-09-25T04:39:44;98293.95;;;6.61;99.57
38267;BME280;24063;51.794;19.578;2022-09-25T04:40:46;98293.14;;;6.60;99.56
38267;BME280;24063;51.794;19.578;2022-09-25T04:41:48;98294.05;;;6.59;99.36
38267;BME280;24063;51.794;19.578;2022-09-25T04:42:57;98295.34;;;6.59;99.45
38267;BME280;24063;51.794;19.578;2022-09-25T04:43:59;98297.27;;;6.59;99.56
38267;BME280;24063;51.794;19.578;2022-09-25T04:45:00;98295.45;;;6.59;99.63
38267;BME280;24063;51.794;19.578;2022-09-25T04:46:04;98301.67;;;6.60;99.90
38267;BME280;24063;51.794;19.578;2022-09-25T04:47:07;98298.99;;;6.62;99.99
38267;BME280;24063;51.794;19.578;2022-09-25T04:48:08;98299.34;;;6.63;100.00
38267;BME280;24063;51.794;19.578;2022-09-25T04:49:10;98298.71;;;6.65;100.00
38267;BME280;24063;51.794;19.578;2022-09-25T04:50:12;98300.87;;;6.67;100.00
38267;BME280;24063;51.794;19.578;2022-09-25T04:51:14;98300.52;;;6.70;100.00
38267;BME280;24063;51.794;19.578;2022-09-25T04:52:17;98301.02;;;6.71;100.00
38267;BME280;24063;51.794;19.578;2022-09-25T04:53:20;98299.95;;;6.73;100.00
38267;BME280;24063;51.794;19.578;2022-09-25T04:54:23;98301.42;;;6.75;100.00
38267;BME280;24063;51.794;19.578;2022-09-25T04:55:26;98298.10;;;6.77;100.00
38267;BME280;24063;51.794;19.578;2022-09-25T04:56:28;98293.76;;;6.78;100.00
38267;BME280;24063;51.794;19.578;2022-09-25T04:57:29;98287.41;;;6.76;100.00
38267;BME280;24063;51.794;19.578;2022-09-25T04:58:51;98294.48;;;6.83;100.00
38267;BME280;24063;51.794;19.578;2022-09-25T04:59:53;98291.33;;;6.84;100.00
38267;BME280;24063;51.794;19.578;2022-09-25T05:00:55;98295.75;;;6.87;100.00
38267;BME280;24063;51.794;19.578;2022-09-25T05:01:57;98293.99;;;6.89;100.00
38267;BME280;24063;51.794;19.578;2022-09-25T05:03:01;98298.73;;;6.91;100.00
38267;BME280;24063;51.794;19.578;2022-09-25T05:04:03;98297.35;;;6.92;100.00
38267;BME280;24063;51.794;19.578;2022-09-25T05:05:09;98295.48;;;6.93;100.00
38267;BME280;24063;51.794;19.578;2022-09-25T05:06:11;98293.00;;;6.92;100.00
38267;BME280;24063;51.794;19.578;2022-09-25T05:07:12;98292.95;;;6.94;100.00
38267;BME280;24063;51.794;19.578;2022-09-25T05:08:14;98291.77;;;6.94;100.00
38267;BME280;24063;51.794;19.578;2022-09-25T05:09:16;98294.52;;;6.96;100.00
38267;BME280;24063;51.794;19.578;2022-09-25T05:10:19;98296.62;;;6.97;100.00
38267;BME280;24063;51.794;19.578;2022-09-25T05:11:21;98290.08;;;6.98;100.00
38267;BME280;24063;51.794;19.578;2022-09-25T05:12:23;98294.15;;;6.97;100.00
38267;BME280;24063;51.794;19.578;2022-09-25T05:13:25;98295.29;;;6.97;100.00
38267;BME280;24063;51.794;19.578;2022-09-25T05:14:28;98298.02;;;6.96;100.00
38267;BME280;24063;51.794;19.578;2022-09-25T05:15:32;98300.54;;;6.95;100.00
38267;BME280;24063;51.794;19.578;2022-09-25T05:16:34;98298.44;;;6.95;100.00
38267;BME280;24063;51.794;19.578;2022-09-25T05:17:36;98299.83;;;6.94;99.96
38267;BME280;24063;51.794;19.578;2022-09-25T05:18:37;98295.05;;;6.94;100.00
38267;BME280;24063;51.794;19.578;2022-09-25T05:19:39;98294.58;;;6.96;100.00
38267;BME280;24063;51.794;19.578;2022-09-25T05:20:41;98297.05;;;6.96;100.00
38267;BME280;24063;51.794;19.578;2022-09-25T05:21:43;98296.35;;;6.96;100.00
38267;BME280;24063;51.794;19.578;2022-09-25T05:22:44;98296.09;;;6.96;100.00
38267;BME280;24063;51.794;19.578;2022-09-25T05:23:47;98295.55;;;6.96;100.00
38267;BME280;24063;51.794;19.578;2022-09-25T05:24:48;98302.20;;;6.97;100.00
38267;BME280;24063;51.794;19.578;2022-09-25T05:25:53;98300.45;;;6.98;100.00
38267;BME280;24063;51.794;19.578;2022-09-25T05:26:58;98301.20;;;7.00;100.00
38267;BME280;24063;51.794;19.578;2022-09-25T05:28:00;98303.43;;;7.02;100.00
38267;BME280;24063;51.794;19.578;2022-09-25T05:29:04;98301.44;;;7.04;100.00
38267;BME280;24063;51.794;19.578;2022-09-25T05:30:06;98301.23;;;7.06;100.00
38267;BME280;24063;51.794;19.578;2022-09-25T05:31:10;98299.77;;;7.09;100.00
38267;BME280;24063;51.794;19.578;2022-09-25T05:32:11;98303.76;;;7.11;100.00
38267;BME280;24063;51.794;19.578;2022-09-25T05:33:13;98300.94;;;7.15;100.00
38267;BME280;24063;51.794;19.578;2022-09-25T05:34:15;98301.32;;;7.18;100.00
38267;BME280;24063;51.794;19.578;2022-09-25T05:35:18;98303.21;;;7.22;100.00
38267;BME280;24063;51.794;19.578;2022-09-25T05:36:21;98306.80;;;7.27;100.00
38267;BME280;24063;51.794;19.578;2022-09-25T05:37:23;98304.95;;;7.33;100.00
38267;BME280;24063;51.794;19.578;2022-09-25T05:38:24;98304.71;;;7.38;100.00
38267;BME280;24063;51.794;19.578;2022-09-25T05:39:26;98307.63;;;7.44;100.00
38267;BME280;24063;51.794;19.578;2022-09-25T05:40:28;98307.82;;;7.49;100.00
38267;BME280;24063;51.794;19.578;2022-09-25T05:41:30;98310.27;;;7.54;100.00
38267;BME280;24063;51.794;19.578;2022-09-25T05:42:36;98310.35;;;7.60;100.00
38267;BME280;24063;51.794;19.578;2022-09-25T05:43:41;98307.95;;;7.64;100.00
38267;BME280;24063;51.794;19.578;2022-09-25T05:44:43;98310.37;;;7.68;100.00
38267;BME280;24063;51.794;19.578;2022-09-25T05:45:52;98308.08;;;7.73;100.00
38267;BME280;24063;51.794;19.578;2022-09-25T05:46:54;98304.86;;;7.77;100.00
38267;BME280;24063;51.794;19.578;2022-09-25T05:48:04;98296.36;;;7.79;100.00
38267;BME280;24063;51.794;19.578;2022-09-25T05:49:06;98304.04;;;7.88;100.00
38267;BME280;24063;51.794;19.578;2022-09-25T05:50:11;98302.72;;;7.93;100.00
38267;BME280;24063;51.794;19.578;2022-09-25T05:51:14;98302.02;;;8.00;100.00
38267;BME280;24063;51.794;19.578;2022-09-25T05:52:16;98301.98;;;8.06;100.00
38267;BME280;24063;51.794;19.578;2022-09-25T05:53:17;98301.41;;;8.12;100.00
38267;BME280;24063;51.794;19.578;2022-09-25T05:54:19;98299.27;;;8.19;100.00
38267;BME280;24063;51.794;19.578;2022-09-25T05:55:21;98303.27;;;8.24;100.00
38267;BME280;24063;51.794;19.578;2022-09-25T05:56:23;98302.03;;;8.28;100.00
38267;BME280;24063;51.794;19.578;2022-09-25T05:57:25;98301.60;;;8.33;100.00
38267;BME280;24063;51.794;19.578;2022-09-25T05:58:29;98299.61;;;8.38;100.00
38267;BME280;24063;51.794;19.578;2022-09-25T05:59:31;98300.02;;;8.43;99.80
38267;BME280;24063;51.794;19.578;2022-09-25T06:00:35;98297.83;;;8.46;99.49
38267;BME280;24063;51.794;19.578;2022-09-25T06:01:37;98297.71;;;8.48;99.23
38267;BME280;24063;51.794;19.578;2022-09-25T06:02:39;98297.40;;;8.54;98.92
38267;BME280;24063;51.794;19.578;2022-09-25T06:03:41;98296.92;;;8.56;98.54
38267;BME280;24063;51.794;19.578;2022-09-25T06:04:42;98298.37;;;8.58;98.20
38267;BME280;24063;51.794;19.578;2022-09-25T06:05:44;98296.84;;;8.60;98.46
38267;BME280;24063;51.794;19.578;2022-09-25T06:06:46;98296.38;;;8.64;98.08
38267;BME280;24063;51.794;19.578;2022-09-25T06:07:54;98292.81;;;8.66;97.75
38267;BME280;24063;51.794;19.578;2022-09-25T06:08:56;98292.27;;;8.70;97.60